createdAt,value
2022-08-26T16:04:09.752Z,100717.67
2022-08-26T16:07:43.368Z,100719.80
2022-08-26T16:11:23.089Z,100724.21
2022-08-26T16:15:01.304Z,100729.39
2022-08-26T16:18:40.200Z,100725.39
2022-08-26T16:22:17.781Z,100716.86
2022-08-26T16:25:55.425Z,100717.99
2022-08-26T16:29:33.441Z,100712.83
2022-08-26T16:33:14.410Z,100706.75
2022-08-26T16:37:06.637Z,100705.86
2022-08-26T16:40:44.283Z,100703.48
2022-08-26T16:44:22.074Z,100709.50
2022-08-26T16:47:59.833Z,100716.29
2022-08-26T16:51:38.517Z,100705.16
2022-08-26T16:55:16.162Z,100713.67
2022-08-26T16:58:53.668Z,100731.60
2022-08-26T17:02:32.582Z,100741.54
2022-08-26T17:06:11.579Z,100752.83
2022-08-26T17:09:49.265Z,100754.43
2022-08-26T17:13:35.746Z,100740.52
2022-08-26T17:17:14.181Z,100728.64
2022-08-26T17:20:52.738Z,100723.58
2022-08-26T17:24:33.998Z,100715.19
2022-08-26T17:28:13.561Z,100713.48
2022-08-26T17:31:51.728Z,100710.40
2022-08-26T17:35:28.674Z,100700.45
2022-08-26T17:39:05.680Z,100691.51
2022-08-26T17:42:43.917Z,100699.36
2022-08-26T17:46:21.463Z,100694.75
2022-08-26T17:50:00.617Z,100696.10
2022-08-26T17:53:39.498Z,100704.31
2022-08-26T17:57:16.480Z,100710.94
2022-08-26T18:00:56.695Z,100712.27
2022-08-26T18:04:34.460Z,100724.49
2022-08-26T18:08:12.254Z,100721.67
2022-08-26T18:11:51.935Z,100721.05
2022-08-26T18:15:29.695Z,100724.73
2022-08-26T18:19:07.400Z,100736.02
2022-08-26T18:22:47.317Z,100740.40
2022-08-26T18:26:37.087Z,100743.71
2022-08-26T18:30:18.931Z,100754.34
2022-08-26T18:33:58.875Z,100766.93
2022-08-26T18:37:36.477Z,100773.71
2022-08-26T18:41:14.801Z,100785.31
2022-08-26T18:44:51.678Z,100792.46
2022-08-26T18:48:29.893Z,100795.19
2022-08-26T18:52:07.131Z,100802.45
2022-08-26T18:55:45.636Z,100826.33
2022-08-26T18:59:28.804Z,100848.58
2022-08-26T19:03:08.292Z,100863.70
2022-08-26T19:06:57.094Z,100873.81
2022-08-26T19:10:39.764Z,100879.17
2022-08-26T19:14:18.267Z,100878.70
2022-08-26T19:17:55.802Z,100870.33
2022-08-26T19:21:35.487Z,100875.76
2022-08-26T19:25:12.881Z,100874.65
2022-08-26T19:28:51.404Z,100862.84
2022-08-26T19:32:30.654Z,100853.91
2022-08-26T19:36:14.784Z,100848.71
2022-08-26T19:39:52.756Z,100851.55
2022-08-26T19:43:30.608Z,100849.30
2022-08-26T19:47:11.089Z,100850.98
2022-08-26T19:50:48.934Z,100844.63
2022-08-26T19:54:26.748Z,100848.64
2022-08-26T19:58:03.783Z,100855.16
2022-08-26T20:01:41.170Z,100866.41
2022-08-26T20:05:21.774Z,100884.27
2022-08-26T20:09:00.611Z,100885.97
2022-08-26T20:12:37.930Z,100889.50
2022-08-26T20:16:17.323Z,100892.96
2022-08-26T20:19:55.037Z,100896.59
2022-08-26T20:23:32.699Z,100891.59
2022-08-26T20:27:11.390Z,100881.13
2022-08-26T20:30:48.590Z,100876.02
2022-08-26T20:34:27.139Z,100857.84
2022-08-26T20:38:04.753Z,100870.86
2022-08-26T20:41:44.674Z,100883.75
2022-08-26T20:45:22.785Z,100885.34
2022-08-26T20:49:00.832Z,100876.08
2022-08-26T20:52:38.400Z,100875.41
2022-08-26T20:56:18.224Z,100874.27
2022-08-26T20:59:55.882Z,100872.21
2022-08-26T21:03:33.837Z,100876.30
2022-08-26T21:07:11.786Z,100876.58
2022-08-26T21:10:49.961Z,100889.34
2022-08-26T21:14:30.049Z,100889.63
2022-08-26T21:18:07.737Z,100886.39
2022-08-26T21:21:47.653Z,100878.30
2022-08-26T21:25:25.348Z,100871.52
2022-08-26T21:29:05.315Z,100883.58
2022-08-26T21:32:43.244Z,100899.02
2022-08-26T21:36:20.923Z,100887.13
2022-08-26T21:40:00.038Z,100850.45
2022-08-26T21:43:39.050Z,100818.76
2022-08-26T21:47:17.158Z,100805.98
2022-08-26T21:50:54.964Z,100796.90
2022-08-26T21:54:32.568Z,100795.67
2022-08-26T21:58:10.403Z,100804.05
2022-08-26T22:01:48.475Z,100804.27
2022-08-26T22:05:27.475Z,100794.30
2022-08-26T22:09:06.203Z,100779.32
2022-08-26T22:12:43.987Z,100770.73
2022-08-26T22:16:21.895Z,100764.55
2022-08-26T22:20:00.007Z,100745.00
2022-08-26T22:23:38.969Z,100726.08
2022-08-26T22:27:16.197Z,100711.02
2022-08-26T22:30:53.388Z,100705.05
2022-08-26T22:34:30.786Z,100687.65
2022-08-26T22:38:09.672Z,100673.16
2022-08-26T22:41:48.925Z,100677.96
2022-08-26T22:45:27.435Z,100671.05
2022-08-26T22:49:04.993Z,100683.05
2022-08-26T22:52:42.103Z,100721.95
2022-08-26T22:56:21.290Z,100760.27
2022-08-26T22:59:58.645Z,100784.83
2022-08-26T23:03:37.057Z,100813.49
2022-08-26T23:07:14.605Z,100808.38
2022-08-26T23:10:52.524Z,100792.97
2022-08-26T23:14:32.179Z,100794.45
2022-08-26T23:18:10.471Z,100795.18
2022-08-26T23:21:49.816Z,100791.49
2022-08-26T23:25:28.567Z,100781.78
2022-08-26T23:29:07.988Z,100777.04
2022-08-26T23:32:45.533Z,100785.48
2022-08-26T23:36:23.183Z,100784.84
2022-08-26T23:40:09.139Z,100779.09
2022-08-26T23:43:46.369Z,100775.63
2022-08-26T23:47:25.190Z,100792.92
2022-08-26T23:51:03.442Z,100803.48
2022-08-26T23:54:41.036Z,100809.28
2022-08-26T23:58:20.202Z,100823.84
